Illiopolis, Illinois
Current Conditions -  °F | °C
As of 12:54 PM on Friday 21 Nov 2014 (Local Time) from KDEC Reporting Station
Clear Clear  
Wind Chill: -2°   Ceiling: Unl
Heat Index:   Visibility: 10mi
Dew Point: -11°   Wind: 8mph
Humidity: 39%   Direction: 160°SSE
Pressure: 30.39"   Gusts: 18mph
Location:  39.85°N, 89.24°W
Report Text: KDEC 211854Z 16007G16KT 10SM CLR 02/M11 A3039 RMK AO2 SLP301 T00171111
Loading
Personal Weather Stations






























Interactive Weather Map New forecast layout! Learn more

10-Day Weather Forecast

Advertisements
Track Severe Weather on mobile